createdAt,value
2019-02-24T00:00:42.383Z,3.70
2019-02-24T00:03:10.728Z,3.61
2019-02-24T00:05:39.351Z,3.54
2019-02-24T00:08:07.663Z,3.50
2019-02-24T00:10:36.026Z,3.45
2019-02-24T00:13:04.337Z,3.41
2019-02-24T00:15:32.628Z,3.40
2019-02-24T00:18:01.347Z,3.35
2019-02-24T00:20:29.656Z,3.31
2019-02-24T00:22:57.980Z,3.24
2019-02-24T00:25:26.296Z,3.19
2019-02-24T00:27:54.601Z,3.15
2019-02-24T00:30:22.909Z,3.13
2019-02-24T00:32:51.248Z,3.11
2019-02-24T00:35:19.619Z,3.14
2019-02-24T00:37:47.914Z,3.14
2019-02-24T00:40:16.556Z,3.16
2019-02-24T00:42:44.852Z,3.16
2019-02-24T00:45:13.183Z,3.15
2019-02-24T00:47:41.793Z,3.14
2019-02-24T00:50:10.354Z,3.09
2019-02-24T00:52:38.666Z,3.08
2019-02-24T00:55:07.889Z,3.08
2019-02-24T00:57:36.193Z,3.06
2019-02-24T01:00:07.057Z,3.06
2019-02-24T01:02:35.365Z,3.03
2019-02-24T01:05:04.630Z,2.98
2019-02-24T01:07:32.917Z,2.94
2019-02-24T01:10:01.337Z,2.94
2019-02-24T01:12:29.886Z,2.95
2019-02-24T01:14:58.469Z,2.99
2019-02-24T01:17:26.773Z,3.06
2019-02-24T01:19:55.091Z,3.13
2019-02-24T01:22:23.387Z,3.16
2019-02-24T01:24:51.696Z,3.16
2019-02-24T01:27:20.001Z,3.14
2019-02-24T01:29:48.323Z,3.18
2019-02-24T01:32:16.907Z,3.24
2019-02-24T01:34:45.491Z,3.29
2019-02-24T01:37:13.810Z,3.33
2019-02-24T01:39:42.118Z,3.38
2019-02-24T01:42:10.437Z,3.37
2019-02-24T01:44:38.873Z,3.36
2019-02-24T01:47:07.179Z,3.35
2019-02-24T01:49:35.486Z,3.36
2019-02-24T01:52:03.802Z,3.39
2019-02-24T01:54:32.126Z,3.38
2019-02-24T01:57:00.433Z,3.34
2019-02-24T01:59:28.720Z,3.33
2019-02-24T02:01:57.342Z,3.33
2019-02-24T02:04:25.670Z,3.34
2019-02-24T02:06:54.056Z,3.34
2019-02-24T02:09:22.365Z,3.34
2019-02-24T02:11:50.672Z,3.30
2019-02-24T02:14:18.969Z,3.30
2019-02-24T02:16:47.364Z,3.31
2019-02-24T02:19:15.999Z,3.30
2019-02-24T02:21:44.300Z,3.26
2019-02-24T02:24:12.606Z,3.20
2019-02-24T02:26:41.235Z,3.18
2019-02-24T02:29:09.601Z,3.13
2019-02-24T02:31:38.200Z,3.04
2019-02-24T02:34:06.532Z,3.00
2019-02-24T02:36:35.167Z,2.93
2019-02-24T02:39:04.371Z,2.91
2019-02-24T02:41:32.653Z,2.95
2019-02-24T02:44:00.986Z,3.00
2019-02-24T02:46:29.279Z,2.99
2019-02-24T02:48:57.580Z,2.94
2019-02-24T02:51:25.919Z,2.86
2019-02-24T02:53:54.209Z,2.76
2019-02-24T02:56:22.542Z,2.71
2019-02-24T02:58:54.159Z,2.71
2019-02-24T03:01:20.890Z,2.74
2019-02-24T03:03:49.307Z,2.75
2019-02-24T03:06:19.260Z,2.71
2019-02-24T03:08:49.225Z,2.72
2019-02-24T03:11:17.600Z,2.73
2019-02-24T03:13:45.902Z,2.70
2019-02-24T03:16:16.160Z,2.66
2019-02-24T03:18:44.400Z,2.61
2019-02-24T03:21:12.734Z,2.58
2019-02-24T03:23:41.023Z,2.58
2019-02-24T03:26:09.325Z,2.58
2019-02-24T03:28:37.613Z,2.57
2019-02-24T03:31:06.252Z,2.57
2019-02-24T03:33:34.838Z,2.62
2019-02-24T03:36:03.423Z,2.66
2019-02-24T03:38:32.016Z,2.71
2019-02-24T03:41:00.305Z,2.75
2019-02-24T03:43:28.644Z,2.79
2019-02-24T03:45:57.231Z,2.81
2019-02-24T03:48:25.559Z,2.85
2019-02-24T03:50:53.860Z,2.86
2019-02-24T03:53:22.189Z,2.84
2019-02-24T03:55:50.488Z,2.79
2019-02-24T03:58:18.876Z,2.71
2019-02-24T04:00:47.177Z,2.65
2019-02-24T04:03:15.501Z,2.61
2019-02-24T04:05:43.817Z,2.60
2019-02-24T04:08:12.128Z,2.54
2019-02-24T04:10:40.509Z,2.48
2019-02-24T04:13:08.851Z,2.41
2019-02-24T04:15:37.306Z,2.35
2019-02-24T04:18:05.617Z,2.29
2019-02-24T04:20:33.922Z,2.23
2019-02-24T04:23:02.502Z,2.23
2019-02-24T04:25:30.828Z,2.20
2019-02-24T04:27:59.473Z,2.18
2019-02-24T04:30:27.820Z,2.17
2019-02-24T04:32:56.111Z,2.13
2019-02-24T04:35:24.426Z,2.10
2019-02-24T04:37:52.742Z,2.07
2019-02-24T04:40:21.038Z,2.03
2019-02-24T04:42:49.348Z,2.02
2019-02-24T04:45:17.666Z,2.01
2019-02-24T04:47:45.965Z,1.97
2019-02-24T04:50:14.269Z,1.92
2019-02-24T04:52:42.655Z,1.86
2019-02-24T04:55:11.060Z,1.81
2019-02-24T04:57:39.381Z,1.78
2019-02-24T05:00:09.631Z,1.81
2019-02-24T05:02:37.951Z,1.82
2019-02-24T05:05:06.399Z,1.81
2019-02-24T05:07:35.626Z,1.77
2019-02-24T05:10:05.377Z,1.75
2019-02-24T05:12:33.697Z,1.74
2019-02-24T05:15:02.091Z,1.73
2019-02-24T05:17:30.421Z,1.72
2019-02-24T05:19:58.709Z,1.68
2019-02-24T05:22:27.056Z,1.67
2019-02-24T05:24:55.374Z,1.65
2019-02-24T05:27:24.061Z,1.68
2019-02-24T05:29:52.636Z,1.67
2019-02-24T05:32:20.955Z,1.67
2019-02-24T05:34:49.276Z,1.68
2019-02-24T05:37:17.579Z,1.72
2019-02-24T05:39:46.274Z,1.73
2019-02-24T05:42:14.575Z,1.68
2019-02-24T05:44:42.876Z,1.60
2019-02-24T05:47:11.198Z,1.59
2019-02-24T05:49:39.510Z,1.59
2019-02-24T05:52:07.798Z,1.55
2019-02-24T05:54:36.140Z,1.56
2019-02-24T05:57:04.786Z,1.55
2019-02-24T05:59:33.127Z,1.57
2019-02-24T06:02:01.430Z,1.56
2019-02-24T06:04:30.028Z,1.54
2019-02-24T06:06:58.331Z,1.52
2019-02-24T06:09:26.636Z,1.49
2019-02-24T06:11:55.117Z,1.46
2019-02-24T06:14:23.415Z,1.46
2019-02-24T06:16:51.737Z,1.46
2019-02-24T06:19:20.301Z,1.48
2019-02-24T06:21:48.623Z,1.51
2019-02-24T06:24:16.927Z,1.55
2019-02-24T06:26:45.246Z,1.56
2019-02-24T06:29:15.201Z,1.55
2019-02-24T06:31:43.529Z,1.54
2019-02-24T06:34:11.813Z,1.52
2019-02-24T06:36:40.135Z,1.53
2019-02-24T06:39:08.426Z,1.56
2019-02-24T06:41:36.745Z,1.56
2019-02-24T06:44:05.044Z,1.60
2019-02-24T06:46:33.331Z,1.64
2019-02-24T06:49:01.643Z,1.71
2019-02-24T06:51:29.946Z,1.75
2019-02-24T06:53:58.250Z,1.75
2019-02-24T06:56:26.561Z,1.75
2019-02-24T06:58:54.864Z,1.74
2019-02-24T07:01:23.239Z,1.77
2019-02-24T07:03:51.562Z,1.73
2019-02-24T07:06:19.865Z,1.71
2019-02-24T07:08:48.195Z,1.73
2019-02-24T07:11:16.497Z,1.76
2019-02-24T07:13:45.150Z,1.81
2019-02-24T07:16:13.462Z,1.83
2019-02-24T07:18:41.834Z,1.88
2019-02-24T07:21:10.128Z,1.92
2019-02-24T07:23:38.466Z,1.99
2019-02-24T07:26:06.770Z,2.07
2019-02-24T07:28:35.078Z,2.18
2019-02-24T07:31:03.386Z,2.26
2019-02-24T07:33:31.717Z,2.34
2019-02-24T07:36:00.021Z,2.39
2019-02-24T07:38:28.330Z,2.41
2019-02-24T07:40:56.712Z,2.49
2019-02-24T07:43:25.376Z,2.61
2019-02-24T07:45:53.965Z,2.73
2019-02-24T07:48:22.496Z,2.82
2019-02-24T07:50:50.807Z,2.90
2019-02-24T07:53:19.097Z,2.99
2019-02-24T07:55:47.412Z,3.06
2019-02-24T07:58:15.710Z,3.17
2019-02-24T08:00:44.049Z,3.28
2019-02-24T08:03:12.360Z,3.37
2019-02-24T08:05:40.663Z,3.44
2019-02-24T08:08:16.200Z,3.53
2019-02-24T08:10:39.027Z,3.65
2019-02-24T08:13:07.350Z,3.77
2019-02-24T08:15:35.655Z,3.87
2019-02-24T08:18:03.957Z,3.96
2019-02-24T08:20:33.458Z,4.05
2019-02-24T08:23:01.766Z,4.16
2019-02-24T08:25:30.371Z,4.28
2019-02-24T08:27:58.692Z,4.40
2019-02-24T08:30:27.242Z,4.53
2019-02-24T08:32:55.561Z,4.66
2019-02-24T08:35:23.918Z,4.77
2019-02-24T08:37:52.222Z,4.87
2019-02-24T08:40:20.544Z,4.98
2019-02-24T08:42:48.871Z,5.08
2019-02-24T08:45:17.161Z,5.19
2019-02-24T08:47:45.477Z,5.30
2019-02-24T08:50:13.782Z,5.38
2019-02-24T08:52:42.088Z,5.42
2019-02-24T08:55:10.403Z,5.53
2019-02-24T08:57:38.724Z,5.61
2019-02-24T09:00:10.190Z,5.69
2019-02-24T09:02:38.496Z,5.82
2019-02-24T09:05:07.064Z,5.91
2019-02-24T09:07:35.402Z,6.00
2019-02-24T09:10:04.086Z,6.04
2019-02-24T09:12:32.386Z,6.13
2019-02-24T09:15:00.770Z,6.17
2019-02-24T09:17:29.068Z,6.24
2019-02-24T09:19:57.408Z,6.31
2019-02-24T09:22:25.765Z,6.39
2019-02-24T09:24:54.263Z,6.48
2019-02-24T09:27:22.560Z,6.58
2019-02-24T09:29:50.925Z,6.66
2019-02-24T09:32:19.232Z,6.85
2019-02-24T09:34:47.551Z,6.85
2019-02-24T09:37:15.846Z,6.96
2019-02-24T09:39:44.154Z,7.05
2019-02-24T09:42:12.446Z,7.15
2019-02-24T09:44:40.756Z,7.24
2019-02-24T09:47:09.041Z,7.29
2019-02-24T09:49:37.461Z,7.36
2019-02-24T09:52:05.767Z,7.43
2019-02-24T09:54:34.089Z,7.51
2019-02-24T09:57:02.737Z,7.55
2019-02-24T09:59:31.024Z,7.60
2019-02-24T10:01:59.401Z,7.62
2019-02-24T10:04:27.666Z,7.69
2019-02-24T10:06:55.960Z,7.75
2019-02-24T10:09:24.246Z,7.89
2019-02-24T10:11:52.550Z,7.94
2019-02-24T10:14:20.840Z,8.00
2019-02-24T10:16:49.149Z,8.07
2019-02-24T10:19:17.447Z,8.10
2019-02-24T10:21:45.770Z,8.09
2019-02-24T10:24:14.053Z,8.13
2019-02-24T10:26:42.378Z,8.21
2019-02-24T10:29:10.688Z,8.27
2019-02-24T10:31:38.993Z,8.38
2019-02-24T10:34:07.739Z,8.48
2019-02-24T10:36:36.062Z,8.58
2019-02-24T10:39:04.900Z,8.70
2019-02-24T10:41:33.215Z,8.78
2019-02-24T10:44:01.555Z,8.85
2019-02-24T10:46:30.317Z,8.91
2019-02-24T10:49:03.283Z,8.96
2019-02-24T10:51:28.639Z,9.01
2019-02-24T10:53:57.014Z,9.07
2019-02-24T10:56:25.324Z,9.24
2019-02-24T10:58:53.690Z,9.36
2019-02-24T11:01:29.245Z,9.43
2019-02-24T11:03:52.023Z,9.44
2019-02-24T11:06:20.343Z,9.49
2019-02-24T11:08:48.718Z,9.53
2019-02-24T11:11:17.017Z,9.60
2019-02-24T11:13:45.312Z,9.78
2019-02-24T11:16:13.630Z,9.95
2019-02-24T11:18:42.213Z,10.09
2019-02-24T11:21:10.521Z,10.14
2019-02-24T11:23:38.827Z,10.20
2019-02-24T11:26:07.137Z,10.16
2019-02-24T11:28:35.420Z,10.17
2019-02-24T11:31:03.712Z,10.23
2019-02-24T11:33:32.369Z,10.31
2019-02-24T11:36:00.733Z,10.31
2019-02-24T11:38:29.050Z,10.35
2019-02-24T11:40:57.337Z,10.51
2019-02-24T11:43:25.644Z,10.63
2019-02-24T11:45:53.948Z,10.62
2019-02-24T11:48:22.259Z,10.68
2019-02-24T11:50:50.551Z,10.65
2019-02-24T11:53:19.201Z,10.59
2019-02-24T11:55:47.501Z,10.59
2019-02-24T11:58:15.802Z,10.56
2019-02-24T12:00:44.115Z,10.59
2019-02-24T12:03:12.450Z,10.67
2019-02-24T12:05:40.744Z,10.79
2019-02-24T12:08:09.051Z,10.91
2019-02-24T12:10:37.365Z,11.01
2019-02-24T12:13:05.910Z,11.11
2019-02-24T12:15:34.217Z,11.21
2019-02-24T12:18:02.544Z,11.32
2019-02-24T12:20:30.882Z,11.44
2019-02-24T12:22:59.191Z,11.51
2019-02-24T12:25:27.486Z,11.55
2019-02-24T12:27:55.795Z,11.55
2019-02-24T12:30:24.101Z,11.52
2019-02-24T12:32:52.410Z,11.54
2019-02-24T12:35:20.981Z,11.63
2019-02-24T12:37:49.342Z,11.68
2019-02-24T12:40:17.977Z,11.81
2019-02-24T12:42:46.289Z,11.95
2019-02-24T12:45:15.454Z,12.07
2019-02-24T12:47:43.779Z,12.12
2019-02-24T12:50:13.718Z,12.12
2019-02-24T12:52:42.030Z,12.10
2019-02-24T12:55:10.433Z,12.06
2019-02-24T12:57:39.043Z,12.07
2019-02-24T13:00:15.257Z,12.18
2019-02-24T13:02:43.825Z,12.24
2019-02-24T13:05:12.145Z,12.30
2019-02-24T13:07:40.447Z,12.34
2019-02-24T13:10:11.510Z,12.31
2019-02-24T13:12:39.790Z,12.23
2019-02-24T13:15:08.173Z,12.19
2019-02-24T13:17:36.465Z,12.22
2019-02-24T13:20:07.615Z,12.24
2019-02-24T13:22:36.000Z,12.22
2019-02-24T13:25:05.775Z,12.31
2019-02-24T13:27:34.094Z,12.46
2019-02-24T13:30:02.400Z,12.51
2019-02-24T13:32:30.769Z,12.56
2019-02-24T13:34:59.310Z,12.66
2019-02-24T13:37:27.734Z,12.66
2019-02-24T13:39:56.371Z,12.78
2019-02-24T13:42:24.686Z,12.86
2019-02-24T13:44:52.987Z,12.98
2019-02-24T13:47:21.303Z,13.10
2019-02-24T13:49:49.602Z,13.13
2019-02-24T13:52:17.918Z,13.21
2019-02-24T13:54:46.233Z,13.15
2019-02-24T13:57:14.773Z,13.13
2019-02-24T13:59:43.151Z,13.12
2019-02-24T14:02:11.460Z,13.12
2019-02-24T14:04:39.772Z,13.09
2019-02-24T14:07:08.149Z,13.09
2019-02-24T14:09:36.454Z,13.16
2019-02-24T14:12:04.750Z,13.22
2019-02-24T14:14:33.078Z,13.29
2019-02-24T14:17:01.642Z,13.31
2019-02-24T14:19:30.229Z,13.27
2019-02-24T14:21:58.545Z,13.31
2019-02-24T14:24:26.834Z,13.29
2019-02-24T14:26:55.134Z,13.29
2019-02-24T14:29:23.695Z,13.38
2019-02-24T14:31:52.316Z,13.42
2019-02-24T14:34:20.613Z,13.42
2019-02-24T14:36:48.912Z,13.32
2019-02-24T14:39:17.212Z,13.33
2019-02-24T14:41:45.519Z,13.38
2019-02-24T14:44:13.814Z,13.40
2019-02-24T14:46:42.131Z,13.46
2019-02-24T14:49:10.416Z,13.50
2019-02-24T14:51:38.719Z,13.50
2019-02-24T14:54:07.083Z,13.52
2019-02-24T14:56:35.382Z,13.50
2019-02-24T14:59:05.556Z,13.60
2019-02-24T15:01:34.004Z,13.64
2019-02-24T15:04:02.318Z,13.70
2019-02-24T15:06:30.692Z,13.72
2019-02-24T15:08:59.333Z,13.73
2019-02-24T15:11:27.626Z,13.79
2019-02-24T15:13:55.944Z,13.80
2019-02-24T15:16:24.244Z,13.79
2019-02-24T15:18:52.867Z,13.79
2019-02-24T15:21:21.174Z,13.79
2019-02-24T15:23:49.463Z,13.81
2019-02-24T15:26:17.774Z,13.77
2019-02-24T15:28:46.075Z,13.77
2019-02-24T15:31:14.740Z,13.80
2019-02-24T15:33:43.042Z,13.79
2019-02-24T15:36:12.767Z,13.81
2019-02-24T15:38:41.081Z,13.82
2019-02-24T15:41:09.690Z,13.81
2019-02-24T15:43:38.105Z,13.78
2019-02-24T15:46:06.748Z,13.72
2019-02-24T15:48:35.059Z,13.70
2019-02-24T15:51:03.372Z,13.66
2019-02-24T15:53:31.659Z,13.66
2019-02-24T15:56:00.813Z,13.66
2019-02-24T15:58:29.105Z,13.63
2019-02-24T16:00:57.430Z,13.62
2019-02-24T16:03:25.715Z,13.61
2019-02-24T16:05:54.044Z,13.61
2019-02-24T16:08:22.665Z,13.59
2019-02-24T16:10:50.971Z,13.57
2019-02-24T16:13:19.351Z,13.54
2019-02-24T16:15:47.645Z,13.46
2019-02-24T16:18:15.959Z,13.38
2019-02-24T16:20:44.274Z,13.32
2019-02-24T16:23:12.665Z,13.25
2019-02-24T16:25:41.051Z,13.23
2019-02-24T16:28:09.378Z,13.21
2019-02-24T16:30:37.678Z,13.14
2019-02-24T16:33:10.610Z,13.09
2019-02-24T16:35:36.131Z,13.02
2019-02-24T16:38:04.767Z,12.95
2019-02-24T16:40:33.086Z,12.89
2019-02-24T16:43:01.400Z,12.86
2019-02-24T16:45:29.698Z,12.80
2019-02-24T16:47:58.003Z,12.72
2019-02-24T16:50:26.317Z,12.66
2019-02-24T16:52:54.621Z,12.57
2019-02-24T16:55:22.952Z,12.48
2019-02-24T16:57:51.239Z,12.40
2019-02-24T17:00:24.049Z,12.32
2019-02-24T17:02:52.377Z,12.23
2019-02-24T17:05:20.846Z,12.15
2019-02-24T17:07:49.501Z,12.09
2019-02-24T17:10:20.983Z,12.00
2019-02-24T17:12:49.629Z,11.93
2019-02-24T17:15:17.948Z,11.86
2019-02-24T17:17:46.252Z,11.81
2019-02-24T17:20:22.691Z,11.70
2019-02-24T17:22:51.005Z,11.50
2019-02-24T17:25:19.379Z,11.31
2019-02-24T17:27:47.992Z,11.16
2019-02-24T17:30:17.182Z,11.01
2019-02-24T17:32:45.600Z,10.82
2019-02-24T17:35:14.375Z,10.69
2019-02-24T17:37:42.654Z,10.56
2019-02-24T17:40:16.595Z,10.47
2019-02-24T17:42:44.891Z,10.37
2019-02-24T17:45:14.046Z,10.25
2019-02-24T17:47:42.348Z,9.97
2019-02-24T17:50:13.374Z,9.97
2019-02-24T17:52:41.683Z,9.82
2019-02-24T17:55:12.272Z,9.73
2019-02-24T17:57:40.823Z,9.64
2019-02-24T18:00:28.167Z,9.58
2019-02-24T18:02:57.050Z,9.52
2019-02-24T18:05:25.368Z,9.51
2019-02-24T18:07:53.655Z,9.51
2019-02-24T18:10:22.013Z,9.43
2019-02-24T18:12:50.331Z,9.32
2019-02-24T18:15:18.634Z,9.21
2019-02-24T18:17:46.968Z,9.15
2019-02-24T18:20:19.944Z,9.10
2019-02-24T18:22:48.525Z,9.06
2019-02-24T18:25:17.154Z,9.01
2019-02-24T18:27:45.949Z,8.95
2019-02-24T18:30:25.923Z,8.89
2019-02-24T18:32:54.576Z,8.83
2019-02-24T18:35:22.891Z,8.71
2019-02-24T18:37:51.456Z,8.59
2019-02-24T18:40:19.741Z,8.52
2019-02-24T18:42:48.069Z,8.45
2019-02-24T18:45:16.358Z,8.37
2019-02-24T18:47:44.746Z,8.31
2019-02-24T18:50:17.841Z,8.30
2019-02-24T18:52:46.166Z,8.28
2019-02-24T18:55:14.708Z,8.29
2019-02-24T18:57:43.092Z,8.32
2019-02-24T19:00:17.318Z,8.37
2019-02-24T19:02:45.703Z,8.35
2019-02-24T19:05:14.198Z,8.37
2019-02-24T19:07:42.671Z,8.37
2019-02-24T19:10:21.368Z,8.29
2019-02-24T19:12:50.137Z,8.21
2019-02-24T19:15:19.906Z,8.14
2019-02-24T19:17:48.262Z,8.09
2019-02-24T19:20:23.526Z,8.00
2019-02-24T19:22:51.842Z,7.88
2019-02-24T19:25:20.440Z,7.75
2019-02-24T19:27:48.721Z,7.66
2019-02-24T19:30:18.171Z,7.61
2019-02-24T19:32:46.490Z,7.56
2019-02-24T19:35:15.942Z,7.55
2019-02-24T19:37:44.312Z,7.57
2019-02-24T19:40:17.188Z,7.55
2019-02-24T19:42:45.838Z,7.53
2019-02-24T19:45:16.180Z,7.51
2019-02-24T19:47:44.862Z,7.47
2019-02-24T19:50:17.456Z,7.42
2019-02-24T19:52:45.839Z,7.40
2019-02-24T19:55:15.286Z,7.36
2019-02-24T19:57:43.881Z,7.31
2019-02-24T20:00:23.351Z,7.26
2019-02-24T20:02:51.739Z,7.18
2019-02-24T20:05:20.913Z,7.08
2019-02-24T20:07:49.637Z,7.00
2019-02-24T20:10:23.730Z,6.96
2019-02-24T20:12:52.058Z,6.95
2019-02-24T20:15:20.359Z,6.94
2019-02-24T20:17:48.947Z,6.90
2019-02-24T20:20:17.543Z,6.90
2019-02-24T20:22:45.925Z,6.89
2019-02-24T20:25:21.562Z,6.91
2019-02-24T20:27:50.209Z,6.91
2019-02-24T20:30:20.758Z,6.93
2019-02-24T20:32:49.135Z,6.90
2019-02-24T20:35:17.812Z,6.84
2019-02-24T20:37:46.098Z,6.78
2019-02-24T20:40:14.803Z,6.68
2019-02-24T20:42:43.209Z,6.61
2019-02-24T20:45:19.571Z,6.57
2019-02-24T20:47:47.878Z,6.55
2019-02-24T20:50:18.681Z,6.54
2019-02-24T20:52:46.989Z,6.48
2019-02-24T20:55:15.364Z,6.45
2019-02-24T20:57:43.656Z,6.44
2019-02-24T21:00:21.180Z,6.46
2019-02-24T21:02:49.493Z,6.48
2019-02-24T21:05:17.876Z,6.45
2019-02-24T21:07:46.349Z,6.36
2019-02-24T21:10:14.733Z,6.32
2019-02-24T21:12:43.028Z,6.35
2019-02-24T21:15:15.888Z,6.33
2019-02-24T21:17:44.552Z,6.27
2019-02-24T21:20:30.431Z,6.18
2019-02-24T21:22:58.834Z,6.11
2019-02-24T21:25:27.249Z,6.04
2019-02-24T21:27:55.888Z,6.03
2019-02-24T21:30:24.242Z,6.05
2019-02-24T21:32:52.671Z,6.04
2019-02-24T21:35:21.189Z,6.00
2019-02-24T21:37:49.478Z,5.96
2019-02-24T21:40:18.632Z,5.93
2019-02-24T21:42:46.924Z,5.95
2019-02-24T21:45:17.556Z,6.00
2019-02-24T21:47:45.901Z,6.05
2019-02-24T21:50:16.426Z,6.10
2019-02-24T21:52:44.814Z,6.06
2019-02-24T21:55:13.465Z,6.00
2019-02-24T21:57:42.052Z,5.94
2019-02-24T22:00:18.922Z,5.87
2019-02-24T22:02:47.369Z,5.80
2019-02-24T22:05:15.694Z,5.79
2019-02-24T22:07:43.997Z,5.73
2019-02-24T22:10:13.548Z,5.71
2019-02-24T22:12:42.127Z,5.73
2019-02-24T22:15:13.304Z,5.74
2019-02-24T22:17:41.886Z,5.75
2019-02-24T22:20:10.594Z,5.76
2019-02-24T22:22:38.895Z,5.78
2019-02-24T22:25:10.106Z,5.76
2019-02-24T22:27:38.468Z,5.69
2019-02-24T22:30:16.023Z,5.66
2019-02-24T22:32:44.315Z,5.66
2019-02-24T22:35:12.795Z,5.63
2019-02-24T22:37:41.686Z,5.59
2019-02-24T22:40:16.809Z,5.48
2019-02-24T22:42:45.877Z,5.43
2019-02-24T22:45:19.355Z,5.41
2019-02-24T22:47:47.644Z,5.36
2019-02-24T22:50:16.403Z,5.33
2019-02-24T22:52:45.643Z,5.27
2019-02-24T22:55:17.837Z,5.21
2019-02-24T22:57:46.202Z,5.25
2019-02-24T23:00:52.952Z,5.27
2019-02-24T23:03:27.206Z,5.26
2019-02-24T23:05:55.520Z,5.22
2019-02-24T23:08:23.867Z,5.16
2019-02-24T23:10:52.493Z,5.08
2019-02-24T23:13:21.050Z,5.04
2019-02-24T23:15:49.363Z,5.04
2019-02-24T23:18:17.663Z,5.06
2019-02-24T23:20:45.966Z,5.09
2019-02-24T23:23:14.313Z,5.06
2019-02-24T23:25:42.949Z,5.05
2019-02-24T23:28:11.246Z,5.02
2019-02-24T23:30:39.655Z,4.93
2019-02-24T23:33:08.301Z,4.90
2019-02-24T23:35:36.771Z,4.90
2019-02-24T23:38:05.238Z,4.88
2019-02-24T23:40:33.566Z,4.84
2019-02-24T23:43:01.890Z,4.77
2019-02-24T23:45:30.189Z,4.72
2019-02-24T23:47:58.601Z,4.72
2019-02-24T23:50:26.921Z,4.70
2019-02-24T23:52:55.231Z,4.66
2019-02-24T23:55:23.519Z,4.62
2019-02-24T23:57:51.829Z,4.58
